Terminal Aerodrome Forecast
Issued by NWS Sioux Falls, SD

Home | Current Version | Previous Version | Text Only | Print | Product List | Glossary On
Versions: 1 2 3 4 5 6 7 8 9 10 11 12
000
FTUS43 KFSD 282320
TAFFSD
TAF
KFSD 282320Z 2900/2924 31016G24KT P6SM VCSH SCT080
     FM290200 28010KT P6SM VCSH BKN080
     FM290500 29007KT P6SM SKC
     FM291300 30012KT P6SM SCT050
     FM291500 31015G22KT P6SM BKN050
     FM291700 30018G25KT P6SM BKN050=

USA.gov is the U.S. government's official web portal to all federal, state and local government web resources and services.